Time;durP1;ratioP1;P1;durP2;ratioP2;P2;SDS_P1;SDS_P2;PMS_P1;PMS_P2;Temp;Humidity;BMP_temperature;BMP_pressure;BME280_temperature;BME280_humidity;BME280_pressure;Samples;Min_cycle;Max_cycle;Signal;HPM_P1;HPM_P2
2022/09/13 00:01:28;;;;;;;2.33;2.13;;;15.20;97.40;;;;;;5100181;28;20554;-46
2022/09/13 00:03:53;;;;;;;2.30;2.10;;;15.20;97.40;;;;;;5101539;28;20432;-43
2022/09/13 00:06:19;;;;;;;2.60;2.10;;;15.20;97.50;;;;;;5100535;28;20177;-45
2022/09/13 00:08:45;;;;;;;4.17;2.37;;;15.20;97.50;;;;;;5100748;28;20178;-44
2022/09/13 00:11:17;;;;;;;2.30;2.10;;;15.20;97.60;;;;;;5100835;28;20428;-44
2022/09/13 00:13:43;;;;;;;2.53;2.33;;;15.30;97.60;;;;;;5100902;28;20443;-44
2022/09/13 00:16:12;;;;;;;2.93;2.17;;;15.30;97.70;;;;;;5099840;28;20485;-46
2022/09/13 00:18:38;;;;;;;2.60;2.40;;;15.30;97.70;;;;;;5100677;28;21090;-45
2022/09/13 00:21:10;;;;;;;3.03;2.40;;;15.30;97.70;;;;;;5100601;28;20831;-44
2022/09/13 00:23:36;;;;;;;2.10;1.90;;;15.20;97.70;;;;;;5099859;28;20439;-49
2022/09/13 00:26:07;;;;;;;2.40;2.20;;;15.20;98.00;;;;;;5099182;28;20424;-47
2022/09/13 00:28:33;;;;;;;2.40;2.07;;;15.30;98.70;;;;;;5080432;28;20441;-50
2022/09/13 00:31:01;;;;;;;2.57;2.13;;;15.40;98.80;;;;;;5088589;28;20427;-45
2022/09/13 00:33:26;;;;;;;2.10;1.90;;;15.50;98.30;;;;;;5099912;28;20605;-47
2022/09/13 00:35:52;;;;;;;2.20;1.87;;;15.60;97.70;;;;;;5100398;28;20444;-47
2022/09/13 00:38:17;;;;;;;2.43;2.23;;;15.60;97.50;;;;;;5098658;28;20215;-47
2022/09/13 00:40:43;;;;;;;2.73;2.53;;;15.60;97.30;;;;;;5100424;28;20554;-47
2022/09/13 00:43:19;;;;;;;2.87;2.60;;;15.50;97.30;;;;;;5100799;28;20190;-46
2022/09/13 00:45:46;;;;;;;2.10;1.90;;;15.50;97.40;;;;;;5100364;28;20167;-47
2022/09/13 00:48:24;;;;;;;2.97;2.47;;;15.40;97.60;;;;;;5099951;28;20881;-46
2022/09/13 00:50:53;;;;;;;2.47;2.07;;;15.40;97.70;;;;;;5079422;28;20856;-47
2022/09/13 00:53:29;;;;;;;3.53;2.67;;;15.30;97.90;;;;;;5079361;28;20442;-49
2022/09/13 00:56:14;;;;;;;6.40;2.70;;;15.20;98.10;;;;;;5087165;28;20521;-44
2022/09/13 00:58:48;;;;;;;2.67;2.23;;;15.10;98.20;;;;;;5099042;28;20479;-48
2022/09/13 01:01:14;;;;;;;4.30;2.90;;;15.10;98.40;;;;;;5098929;28;20403;-46
2022/09/13 01:03:41;;;;;;;2.90;2.60;;;15.10;98.60;;;;;;5098392;28;20447;-47
2022/09/13 01:06:14;;;;;;;3.10;2.70;;;15.00;98.50;;;;;;5099367;28;20420;-43
2022/09/13 01:08:42;;;;;;;5.97;2.63;;;15.00;98.60;;;;;;5081330;28;20447;-44
2022/09/13 01:11:12;;;;;;;2.67;2.47;;;15.00;98.70;;;;;;5095608;28;20843;-43
2022/09/13 01:13:38;;;;;;;3.00;2.63;;;15.00;98.70;;;;;;5098177;28;20440;-47
2022/09/13 01:16:04;;;;;;;3.40;3.10;;;14.90;98.90;;;;;;5099869;28;20475;-46
2022/09/13 01:18:30;;;;;;;4.63;3.20;;;14.90;99.00;;;;;;5099655;28;20479;-44
2022/09/13 01:21:29;;;;;;;5.47;3.17;;;14.90;99.20;;;;;;5098983;28;20743;-47
2022/09/13 01:24:00;;;;;;;3.00;2.57;;;14.90;99.40;;;;;;5099617;28;20181;-46
2022/09/13 01:26:51;;;;;;;3.40;2.60;;;14.90;99.50;;;;;;5099136;28;20808;-43
2022/09/13 01:29:44;;;;;;;5.17;3.03;;;14.80;99.50;;;;;;5098515;28;20710;-44
2022/09/13 01:32:12;;;;;;;6.63;3.70;;;14.90;99.60;;;;;;5098447;28;20436;-46
2022/09/13 01:35:01;;;;;;;3.23;2.73;;;14.90;99.50;;;;;;5099668;28;20473;-46
2022/09/13 01:37:56;;;;;;;3.20;2.90;;;14.90;99.50;;;;;;5098768;28;20455;-46
2022/09/13 01:40:34;;;;;;;3.20;2.80;;;14.80;99.60;;;;;;5099728;28;20409;-43
2022/09/13 01:43:19;;;;;;;3.20;2.90;;;14.80;99.70;;;;;;5098341;28;20745;-49
2022/09/13 01:45:55;;;;;;;3.30;3.00;;;14.80;99.80;;;;;;5084998;28;20414;-45
2022/09/13 01:48:27;;;;;;;4.10;3.80;;;14.80;99.90;;;;;;5099342;28;20488;-45
2022/09/13 01:51:01;;;;;;;4.20;2.83;;;14.80;99.90;;;;;;5098230;28;20405;-43
2022/09/13 01:53:48;;;;;;;2.80;2.60;;;14.80;99.90;;;;;;5098710;28;20469;-44
2022/09/13 01:56:25;;;;;;;3.23;2.93;;;14.80;99.90;;;;;;5098133;28;20839;-47
2022/09/13 01:59:07;;;;;;;5.10;2.93;;;14.80;99.90;;;;;;5098736;28;20471;-45
2022/09/13 02:01:33;;;;;;;3.43;3.07;;;14.80;99.80;;;;;;5097657;28;20800;-45
2022/09/13 02:04:06;;;;;;;3.67;2.60;;;14.80;99.80;;;;;;5098935;28;20409;-43
2022/09/13 02:06:50;;;;;;;3.30;3.00;;;14.80;99.80;;;;;;5098788;28;20403;-44
2022/09/13 02:09:20;;;;;;;3.63;3.00;;;14.80;99.90;;;;;;5099132;28;20444;-44
2022/09/13 02:11:49;;;;;;;3.47;3.00;;;14.70;99.90;;;;;;5099668;28;20850;-43
2022/09/13 02:14:18;;;;;;;4.00;2.80;;;14.70;99.90;;;;;;5095895;28;20439;-42
2022/09/13 02:16:59;;;;;;;3.10;2.80;;;14.70;99.90;;;;;;5097585;28;20423;-43
2022/09/13 02:19:44;;;;;;;3.30;3.00;;;14.70;99.90;;;;;;5097615;28;20452;-45
2022/09/13 02:22:12;;;;;;;6.50;3.10;;;14.70;99.90;;;;;;5083802;28;20685;-47
2022/09/13 02:24:41;;;;;;;3.17;2.87;;;14.60;99.90;;;;;;5097158;28;20418;-44
2022/09/13 02:27:13;;;;;;;3.50;3.20;;;14.60;99.90;;;;;;5098349;28;20397;-43
2022/09/13 02:29:41;;;;;;;4.00;2.87;;;14.60;99.90;;;;;;5097206;28;20431;-44
2022/09/13 02:32:18;;;;;;;4.37;3.00;;;14.60;99.90;;;;;;5097960;28;20396;-47
2022/09/13 02:34:47;;;;;;;3.80;3.27;;;14.50;99.90;;;;;;5096528;28;20463;-43
2022/09/13 02:37:14;;;;;;;4.57;3.47;;;14.50;99.90;;;;;;5096928;28;20489;-46
2022/09/13 02:39:45;;;;;;;3.70;3.30;;;14.50;99.90;;;;;;5112289;27;20489;-43
2022/09/13 02:42:18;;;;;;;3.47;3.17;;;14.50;99.90;;;;;;5120680;27;20419;-44
2022/09/13 02:44:45;;;;;;;3.53;3.23;;;14.40;99.90;;;;;;5120326;27;20496;-45
2022/09/13 02:47:33;;;;;;;3.60;3.30;;;14.40;99.90;;;;;;5120733;27;20425;-47
2022/09/13 02:50:10;;;;;;;2.80;2.60;;;14.30;99.90;;;;;;5139016;27;20419;-44
2022/09/13 02:53:04;;;;;;;3.03;2.80;;;14.30;99.90;;;;;;5138677;27;20410;-44
2022/09/13 02:55:52;;;;;;;3.07;2.70;;;14.30;99.90;;;;;;5139020;27;20519;-45
2022/09/13 02:58:39;;;;;;;4.40;3.17;;;14.20;99.90;;;;;;5137920;27;20472;-47
2022/09/13 03:01:05;;;;;;;3.37;3.07;;;14.20;99.90;;;;;;5137730;27;20410;-43
2022/09/13 03:03:30;;;;;;;4.60;3.03;;;14.20;99.90;;;;;;5136910;27;20425;-45
2022/09/13 03:05:56;;;;;;;3.60;3.30;;;14.10;99.90;;;;;;5135468;27;20478;-45
2022/09/13 03:08:22;;;;;;;4.37;3.97;;;14.10;99.90;;;;;;5134843;27;20584;-47
2022/09/13 03:10:54;;;;;;;3.37;2.80;;;14.10;99.90;;;;;;5116612;27;20239;-44
2022/09/13 03:13:22;;;;;;;3.30;2.70;;;14.10;99.90;;;;;;5134021;27;20747;-47
2022/09/13 03:16:21;;;;;;;3.53;3.23;;;14.00;99.90;;;;;;5134478;27;20470;-44
2022/09/13 03:19:36;;;;;;;3.97;3.00;;;14.00;99.90;;;;;;5134935;27;20780;-47
2022/09/13 03:22:08;;;;;;;3.87;3.57;;;13.90;99.90;;;;;;5079228;28;20845;-46
2022/09/13 03:25:02;;;;;;;3.37;3.07;;;13.90;99.90;;;;;;5137621;27;20664;-44
2022/09/13 03:27:36;;;;;;;3.70;3.40;;;13.90;99.90;;;;;;5138638;27;20442;-45
2022/09/13 03:30:06;;;;;;;3.73;3.20;;;13.80;99.90;;;;;;5137713;27;20826;-47
2022/09/13 03:32:35;;;;;;;3.50;3.20;;;13.80;99.90;;;;;;5120526;28;20448;-44
2022/09/13 03:35:13;;;;;;;4.13;3.50;;;13.80;99.90;;;;;;5142873;27;20424;-48
2022/09/13 03:38:08;;;;;;;3.27;2.97;;;13.80;99.90;;;;;;5141826;27;20480;-44
2022/09/13 03:40:44;;;;;;;3.33;3.10;;;13.70;99.90;;;;;;5141569;27;20471;-44
2022/09/13 03:43:15;;;;;;;3.60;3.30;;;13.80;99.90;;;;;;5122446;27;20429;-45
2022/09/13 03:45:47;;;;;;;4.07;3.67;;;13.80;99.90;;;;;;5123575;27;20826;-46
2022/09/13 03:48:14;;;;;;;4.80;3.53;;;13.80;99.90;;;;;;5105514;27;20435;-47
2022/09/13 03:50:39;;;;;;;5.37;3.50;;;13.80;99.90;;;;;;5122705;27;20417;-46
2022/09/13 03:53:11;;;;;;;4.50;3.60;;;13.80;99.90;;;;;;5122495;27;20437;-47
2022/09/13 03:55:40;;;;;;;5.27;3.93;;;13.80;99.90;;;;;;5140731;27;20179;-44
2022/09/13 03:58:06;;;;;;;3.40;2.93;;;13.80;99.90;;;;;;5135234;27;20973;-47
2022/09/13 04:00:32;;;;;;;4.13;3.50;;;13.80;99.90;;;;;;5138276;27;20513;-46
2022/09/13 04:02:58;;;;;;;3.67;2.87;;;13.90;99.90;;;;;;5139041;27;20432;-46
2022/09/13 04:05:23;;;;;;;3.50;3.20;;;13.90;99.90;;;;;;5140557;27;20482;-46
2022/09/13 04:07:49;;;;;;;6.30;3.63;;;13.90;99.90;;;;;;5139307;27;20193;-46
2022/09/13 04:10:14;;;;;;;4.20;3.80;;;13.80;99.90;;;;;;5138908;27;20189;-45
2022/09/13 04:12:40;;;;;;;3.37;3.07;;;13.80;99.90;;;;;;5138978;27;20224;-45
2022/09/13 04:15:07;;;;;;;4.60;3.50;;;13.80;99.90;;;;;;5137228;27;20173;-47
2022/09/13 04:17:32;;;;;;;3.80;3.27;;;13.80;99.90;;;;;;5137397;27;20575;-47
2022/09/13 04:19:58;;;;;;;3.63;3.33;;;13.80;99.90;;;;;;5137462;27;20512;-44
2022/09/13 04:22:23;;;;;;;4.20;3.57;;;13.80;99.90;;;;;;5138904;27;20178;-47
2022/09/13 04:24:51;;;;;;;5.20;4.13;;;13.70;99.90;;;;;;5139982;27;20239;-46
2022/09/13 04:27:18;;;;;;;4.50;4.10;;;13.60;99.90;;;;;;5139977;27;20172;-45
2022/09/13 04:29:44;;;;;;;4.20;3.90;;;13.50;99.90;;;;;;5113152;28;20431;-43
2022/09/13 04:32:10;;;;;;;4.90;3.93;;;13.50;99.90;;;;;;5119948;28;20440;-45
2022/09/13 04:34:36;;;;;;;4.90;4.40;;;13.50;99.90;;;;;;5119249;28;20200;-46
2022/09/13 04:37:01;;;;;;;4.93;4.10;;;13.50;99.90;;;;;;5098946;28;20893;-44
2022/09/13 04:39:27;;;;;;;4.30;3.97;;;13.50;99.90;;;;;;5117191;28;20326;-45
2022/09/13 04:41:53;;;;;;;4.07;3.60;;;13.50;99.90;;;;;;5118807;28;20189;-45
2022/09/13 04:44:20;;;;;;;5.70;3.97;;;13.50;99.90;;;;;;5115753;28;20519;-45
2022/09/13 04:46:47;;;;;;;4.37;3.97;;;13.50;99.90;;;;;;5097230;28;20536;-46
2022/09/13 04:49:13;;;;;;;5.70;4.10;;;13.50;99.90;;;;;;5115168;28;20517;-47
2022/09/13 04:51:39;;;;;;;5.23;3.50;;;13.50;99.90;;;;;;5115083;28;20436;-45
2022/09/13 04:54:05;;;;;;;5.03;4.20;;;13.60;99.90;;;;;;5114171;28;20424;-45
2022/09/13 04:56:30;;;;;;;5.10;3.93;;;13.60;99.90;;;;;;5114260;28;20183;-44
2022/09/13 04:58:56;;;;;;;4.63;3.90;;;13.60;99.90;;;;;;5115839;28;20205;-46
2022/09/13 05:01:22;;;;;;;4.33;3.93;;;13.60;99.90;;;;;;5079127;28;20211;-46
2022/09/13 05:03:50;;;;;;;4.13;3.70;;;13.60;99.90;;;;;;5095815;28;20232;-43
2022/09/13 05:06:19;;;;;;;4.57;4.17;;;13.60;99.90;;;;;;5113187;28;20719;-45
2022/09/13 05:08:53;;;;;;;5.23;4.03;;;13.70;99.90;;;;;;5095844;28;20701;-43
2022/09/13 05:11:23;;;;;;;7.47;4.20;;;13.70;99.90;;;;;;5093519;28;20492;-44
2022/09/13 05:13:56;;;;;;;3.97;3.60;;;13.70;99.90;;;;;;5095020;28;20411;-45
2022/09/13 05:16:24;;;;;;;6.20;5.23;;;13.70;99.90;;;;;;5114436;27;20603;-44
2022/09/13 05:18:50;;;;;;;5.33;3.97;;;13.70;99.90;;;;;;5111065;28;20459;-46
2022/09/13 05:21:16;;;;;;;4.37;3.87;;;13.80;99.90;;;;;;5114151;28;20694;-47
2022/09/13 05:23:42;;;;;;;4.90;4.40;;;13.70;99.90;;;;;;5113373;28;20417;-46
2022/09/13 05:26:08;;;;;;;5.60;4.63;;;13.80;99.90;;;;;;5091724;28;20433;-45
2022/09/13 05:28:35;;;;;;;4.57;4.17;;;13.80;99.90;;;;;;5106173;28;20449;-43
2022/09/13 05:31:07;;;;;;;4.27;3.67;;;13.80;99.90;;;;;;5131034;27;20273;-44
2022/09/13 05:33:35;;;;;;;5.00;4.50;;;13.80;99.90;;;;;;5131600;27;20426;-45
2022/09/13 05:36:02;;;;;;;4.60;4.20;;;13.90;99.90;;;;;;5113993;27;20434;-45
2022/09/13 05:38:27;;;;;;;5.87;5.03;;;13.90;99.90;;;;;;5097355;27;20472;-44
2022/09/13 05:40:57;;;;;;;4.97;4.50;;;13.90;99.90;;;;;;5131935;27;20470;-47
2022/09/13 05:43:24;;;;;;;4.63;4.13;;;13.90;99.90;;;;;;5131892;27;20180;-46
2022/09/13 05:45:50;;;;;;;5.50;5.00;;;13.90;99.90;;;;;;5131602;27;20421;-44
2022/09/13 05:48:15;;;;;;;8.17;5.43;;;14.00;99.90;;;;;;5112083;27;20485;-45
2022/09/13 05:50:41;;;;;;;4.67;4.23;;;14.00;99.90;;;;;;5129970;27;20270;-46
2022/09/13 05:53:06;;;;;;;5.50;4.60;;;14.10;99.90;;;;;;5130899;27;20209;-46
2022/09/13 05:55:33;;;;;;;6.00;4.53;;;14.10;99.90;;;;;;5132449;27;20536;-46
2022/09/13 05:58:00;;;;;;;6.20;4.40;;;14.20;99.90;;;;;;5135066;27;20302;-44
2022/09/13 06:00:26;;;;;;;7.73;5.40;;;14.30;99.90;;;;;;5136380;27;20431;-48
2022/09/13 06:02:51;;;;;;;7.77;5.53;;;14.30;99.90;;;;;;5133584;27;20405;-49
2022/09/13 06:05:17;;;;;;;6.17;4.60;;;14.40;99.90;;;;;;5132807;27;20446;-43
2022/09/13 06:07:42;;;;;;;6.50;4.40;;;14.50;99.90;;;;;;5114253;27;20239;-44
2022/09/13 06:10:09;;;;;;;4.97;4.47;;;14.60;99.90;;;;;;5133575;27;20186;-43
2022/09/13 06:12:35;;;;;;;8.30;4.63;;;14.80;99.90;;;;;;5134649;27;20179;-48
2022/09/13 06:15:01;;;;;;;5.63;5.03;;;14.90;99.90;;;;;;5135109;27;20435;-44
2022/09/13 06:17:26;;;;;;;7.23;4.70;;;15.10;99.90;;;;;;5135015;27;20404;-45
2022/09/13 06:19:52;;;;;;;5.53;4.60;;;15.20;99.90;;;;;;5136079;27;20178;-46
2022/09/13 06:22:17;;;;;;;6.20;5.17;;;15.30;99.90;;;;;;5134115;27;20315;-47
2022/09/13 06:24:43;;;;;;;5.93;5.17;;;15.40;99.90;;;;;;5113788;27;20228;-46
2022/09/13 06:27:09;;;;;;;5.67;4.40;;;15.40;99.90;;;;;;5132703;27;20180;-46
2022/09/13 06:29:35;;;;;;;5.50;3.90;;;15.40;99.90;;;;;;5132272;27;20179;-45
2022/09/13 06:32:02;;;;;;;4.77;4.37;;;15.40;99.90;;;;;;5134866;27;20522;-46
2022/09/13 06:34:27;;;;;;;5.80;4.00;;;15.40;99.90;;;;;;5134224;27;20825;-46
2022/09/13 06:36:53;;;;;;;5.13;4.63;;;15.40;99.90;;;;;;5133436;27;20426;-44
2022/09/13 06:39:20;;;;;;;6.23;5.30;;;15.50;99.90;;;;;;5135893;27;20643;-43
2022/09/13 06:41:45;;;;;;;4.87;4.47;;;15.60;99.90;;;;;;5135555;27;20230;-45
2022/09/13 06:44:11;;;;;;;5.30;4.80;;;15.80;99.90;;;;;;5134903;27;20427;-43
2022/09/13 06:46:37;;;;;;;4.67;4.27;;;16.00;99.90;;;;;;5134586;27;20187;-44
2022/09/13 06:49:05;;;;;;;6.83;4.70;;;16.20;99.90;;;;;;5116245;27;20423;-55
2022/09/13 06:51:31;;;;;;;4.50;3.70;;;16.50;99.70;;;;;;5133321;27;20447;-45
2022/09/13 06:53:58;;;;;;;6.17;4.80;;;16.80;99.50;;;;;;5131539;27;20764;-45
2022/09/13 06:56:29;;;;;;;4.90;4.10;;;17.00;98.80;;;;;;5133909;27;20416;-46
2022/09/13 06:58:58;;;;;;;4.17;3.77;;;17.40;98.20;;;;;;5132272;27;20773;-45
2022/09/13 07:01:28;;;;;;;4.07;3.77;;;17.70;96.40;;;;;;5133680;27;20575;-45
2022/09/13 07:04:02;;;;;;;3.50;3.20;;;17.90;95.60;;;;;;5133741;27;20492;-45
2022/09/13 07:06:31;;;;;;;3.60;2.17;;;18.20;95.20;;;;;;5132644;27;20420;-46
2022/09/13 07:08:58;;;;;;;5.07;2.83;;;18.60;96.90;;;;;;5132617;27;20430;-46
2022/09/13 07:11:25;;;;;;;5.67;2.37;;;18.90;95.30;;;;;;5115973;27;20431;-46
2022/09/13 07:13:56;;;;;;;4.03;2.50;;;19.30;95.70;;;;;;5134870;27;20426;-46
2022/09/13 07:16:26;;;;;;;4.20;2.80;;;19.70;94.90;;;;;;5131760;27;20424;-46
2022/09/13 07:18:58;;;;;;;5.93;2.80;;;20.20;94.00;;;;;;5113232;28;20976;-46
2022/09/13 07:21:25;;;;;;;4.90;2.70;;;20.60;93.30;;;;;;5115813;28;20420;-47
2022/09/13 07:23:51;;;;;;;3.20;2.73;;;21.10;92.50;;;;;;5130635;27;20437;-48
2022/09/13 07:26:17;;;;;;;3.90;3.50;;;21.70;91.50;;;;;;5118333;28;20416;-49
2022/09/13 07:28:44;;;;;;;3.70;3.20;;;22.40;90.10;;;;;;5134719;27;20428;-47
2022/09/13 07:31:19;;;;;;;2.87;2.63;;;23.10;86.50;;;;;;5117242;28;20203;-48
2022/09/13 07:33:46;;;;;;;3.83;2.97;;;23.40;82.60;;;;;;5136060;28;20427;-47
2022/09/13 07:36:12;;;;;;;4.50;3.40;;;23.40;79.80;;;;;;5135039;27;20435;-45
2022/09/13 07:38:40;;;;;;;3.77;3.40;;;23.50;79.30;;;;;;5134993;27;20863;-47
2022/09/13 07:41:09;;;;;;;3.20;2.67;;;24.10;77.10;;;;;;5133717;27;20486;-48
2022/09/13 07:43:35;;;;;;;4.00;3.17;;;24.60;76.00;;;;;;5117396;28;20448;-47
2022/09/13 07:46:04;;;;;;;2.73;2.53;;;24.70;74.00;;;;;;5136664;27;20420;-47
2022/09/13 07:48:32;;;;;;;4.67;2.50;;;24.70;73.70;;;;;;5136942;28;20818;-48
2022/09/13 07:51:21;;;;;;;4.27;2.47;;;24.90;72.60;;;;;;5136125;27;20448;-47
2022/09/13 07:53:48;;;;;;;3.40;2.40;;;25.10;72.70;;;;;;5133693;27;20831;-47
2022/09/13 07:56:15;;;;;;;2.27;2.07;;;25.20;71.80;;;;;;5116266;28;20453;-47
2022/09/13 07:58:43;;;;;;;3.20;1.90;;;25.60;70.10;;;;;;5132345;27;20474;-46
2022/09/13 08:01:12;;;;;;;2.67;2.47;;;26.60;68.30;;;;;;5109890;28;20405;-46
2022/09/13 08:03:38;;;;;;;5.63;2.30;;;27.80;64.80;;;;;;5129977;28;20401;-49
2022/09/13 08:06:05;;;;;;;2.90;2.70;;;28.70;59.90;;;;;;5131198;27;20719;-47
2022/09/13 08:08:31;;;;;;;3.07;2.47;;;29.30;57.50;;;;;;5131243;28;20199;-47
2022/09/13 08:10:59;;;;;;;6.17;2.13;;;30.00;55.10;;;;;;5132612;27;20464;-46
2022/09/13 08:13:27;;;;;;;3.00;2.03;;;30.20;53.00;;;;;;5133367;27;20732;-48
2022/09/13 08:15:54;;;;;;;2.90;2.10;;;30.40;51.20;;;;;;5131094;27;20436;-46
2022/09/13 08:18:20;;;;;;;2.30;2.10;;;30.40;50.70;;;;;;5133225;27;20467;-47
2022/09/13 08:20:46;;;;;;;2.20;1.97;;;30.10;50.50;;;;;;5137505;27;21074;-48
2022/09/13 08:23:12;;;;;;;2.90;1.97;;;29.50;50.90;;;;;;5138632;27;20508;-47
2022/09/13 08:25:39;;;;;;;3.03;2.20;;;29.70;51.10;;;;;;5137928;27;20615;-45
2022/09/13 08:28:09;;;;;;;2.37;2.17;;;29.90;51.00;;;;;;5119541;27;20410;-47
2022/09/13 08:30:36;;;;;;;2.60;2.00;;;30.40;50.80;;;;;;5120099;27;20416;-45
2022/09/13 08:33:05;;;;;;;2.57;2.37;;;31.00;49.50;;;;;;5138928;27;20413;-47
2022/09/13 08:35:31;;;;;;;3.67;2.33;;;31.80;48.50;;;;;;5139164;27;20494;-48
2022/09/13 08:37:58;;;;;;;3.20;2.27;;;32.30;47.00;;;;;;5120290;27;20475;-47
2022/09/13 08:40:26;;;;;;;3.27;2.07;;;33.00;46.10;;;;;;5138623;27;20444;-48
2022/09/13 08:43:13;;;;;;;2.80;2.50;;;33.50;44.50;;;;;;5139540;27;20388;-47
2022/09/13 08:45:39;;;;;;;3.80;2.33;;;33.50;44.90;;;;;;5118607;27;20451;-47
2022/09/13 08:48:12;;;;;;;3.30;1.77;;;33.30;44.80;;;;;;5138575;27;20429;-46
2022/09/13 08:50:38;;;;;;;2.83;2.47;;;33.30;44.10;;;;;;5139854;27;20178;-49
2022/09/13 08:53:19;;;;;;;3.40;2.17;;;33.80;43.60;;;;;;5139401;27;20429;-45
2022/09/13 08:55:58;;;;;;;4.43;2.37;;;33.80;42.60;;;;;;5120865;27;20169;-46
2022/09/13 08:58:46;;;;;;;7.63;2.30;;;33.90;43.00;;;;;;5139037;27;20449;-47
2022/09/13 09:01:26;;;;;;;3.37;2.17;;;33.20;42.80;;;;;;5136705;27;20385;-45
2022/09/13 09:04:16;;;;;;;3.00;1.70;;;32.40;43.00;;;;;;5137706;27;20504;-46
2022/09/13 09:06:42;;;;;;;2.63;2.43;;;32.40;44.30;;;;;;5138218;27;20405;-46
2022/09/13 09:09:19;;;;;;;2.93;2.23;;;32.80;44.20;;;;;;5137674;27;20424;-46
2022/09/13 09:11:58;;;;;;;2.87;2.20;;;33.00;43.00;;;;;;5120971;27;20774;-45
2022/09/13 09:14:32;;;;;;;4.10;2.33;;;33.00;42.40;;;;;;5121792;27;20466;-47
2022/09/13 09:17:03;;;;;;;5.07;2.10;;;32.50;42.20;;;;;;5138406;27;20470;-46
2022/09/13 09:20:00;;;;;;;3.73;2.07;;;31.80;42.80;;;;;;5137647;27;20465;-45
2022/09/13 09:22:31;;;;;;;3.50;1.90;;;31.20;43.60;;;;;;5127786;27;20413;-47
2022/09/13 09:24:58;;;;;;;2.30;2.10;;;30.80;43.30;;;;;;5113901;28;20857;-47
2022/09/13 09:27:24;;;;;;;2.23;2.03;;;30.90;42.70;;;;;;5113634;28;20690;-47
2022/09/13 09:29:52;;;;;;;1.80;1.70;;;31.20;42.20;;;;;;5113735;28;20381;-47
2022/09/13 09:32:27;;;;;;;1.70;1.40;;;31.40;41.90;;;;;;5111761;28;20437;-44
2022/09/13 09:35:15;;;;;;;3.53;1.10;;;31.70;40.30;;;;;;5115714;28;20398;-47
2022/09/13 09:37:41;;;;;;;6.83;2.40;;;32.00;39.70;;;;;;5113161;28;20436;-44
2022/09/13 09:40:12;;;;;;;2.40;1.80;;;32.00;39.70;;;;;;5113759;27;20841;-46
2022/09/13 09:42:43;;;;;;;3.17;1.50;;;32.20;40.70;;;;;;5135825;27;20407;-51
2022/09/13 09:45:30;;;;;;;4.03;1.90;;;32.40;41.40;;;;;;5120040;27;20432;-49
2022/09/13 09:48:00;;;;;;;3.13;1.70;;;32.80;41.10;;;;;;5120321;27;20401;-47
2022/09/13 09:50:46;;;;;;;3.03;1.40;;;33.00;40.50;;;;;;5119435;27;20759;-45
2022/09/13 09:53:15;;;;;;;2.47;1.33;;;33.20;40.40;;;;;;5136543;27;20419;-47
2022/09/13 09:56:19;;;;;;;2.23;1.50;;;33.60;40.10;;;;;;5127933;27;20680;-46
2022/09/13 09:58:46;;;;;;;2.07;1.30;;;33.80;37.10;;;;;;5134973;27;20463;-46
2022/09/13 10:01:18;;;;;;;1.63;1.53;;;34.00;37.20;;;;;;5134649;27;20403;-49
2022/09/13 10:04:09;;;;;;;2.13;1.47;;;34.50;36.60;;;;;;5129783;27;20389;-48
2022/09/13 10:06:37;;;;;;;1.83;1.40;;;35.50;36.20;;;;;;5106438;27;20481;-48
2022/09/13 10:09:12;;;;;;;2.07;1.50;;;36.20;34.90;;;;;;5135368;27;20409;-46
2022/09/13 10:11:58;;;;;;;3.20;1.70;;;37.20;34.30;;;;;;5136435;27;20688;-48
2022/09/13 10:14:29;;;;;;;2.50;1.30;;;38.50;31.80;;;;;;5119730;27;20462;-47
2022/09/13 10:17:04;;;;;;;1.57;1.07;;;40.00;31.90;;;;;;5137047;27;20508;-47
2022/09/13 10:19:31;;;;;;;1.50;1.20;;;41.30;29.60;;;;;;5136016;27;20492;-47
2022/09/13 10:22:01;;;;;;;1.93;1.33;;;41.50;29.40;;;;;;5135545;27;20923;-47
2022/09/13 10:24:28;;;;;;;4.60;0.90;;;41.70;28.50;;;;;;5134118;27;20698;-50
2022/09/13 10:26:54;;;;;;;2.00;1.27;;;41.70;28.80;;;;;;5133318;27;20828;-47
2022/09/13 10:29:19;;;;;;;1.53;1.30;;;42.50;29.10;;;;;;5133034;27;20416;-50
2022/09/13 10:31:47;;;;;;;1.33;0.97;;;43.50;27.60;;;;;;5131992;27;20568;-50
2022/09/13 10:34:15;;;;;;;1.80;1.40;;;43.40;27.50;;;;;;5116774;27;20233;-49
2022/09/13 10:37:13;;;;;;;2.20;1.20;;;44.00;28.20;;;;;;5132472;27;20447;-49
2022/09/13 10:39:56;;;;;;;2.13;1.40;;;44.30;27.00;;;;;;5131571;27;20471;-46
2022/09/13 10:42:25;;;;;;;2.10;1.60;;;43.70;27.30;;;;;;5131412;27;20448;-47
2022/09/13 10:45:08;;;;;;;1.87;1.27;;;42.40;27.60;;;;;;5135018;27;20414;-48
2022/09/13 10:47:42;;;;;;;2.43;1.50;;;42.30;28.20;;;;;;5108939;28;20429;-46
2022/09/13 10:50:29;;;;;;;2.47;1.57;;;42.90;28.00;;;;;;5127243;27;20531;-50
2022/09/13 10:52:59;;;;;;;1.50;1.40;;;43.30;27.80;;;;;;5099187;27;20436;-46
2022/09/13 10:55:27;;;;;;;1.60;1.37;;;43.30;27.40;;;;;;5136179;27;20441;-51
2022/09/13 10:58:13;;;;;;;2.47;1.50;;;42.30;27.80;;;;;;5135462;27;20460;-48
2022/09/13 11:01:02;;;;;;;1.50;1.40;;;40.90;28.50;;;;;;5120340;27;20778;-46
2022/09/13 11:03:55;;;;;;;1.73;1.37;;;40.10;29.00;;;;;;5115388;28;21014;-45
2022/09/13 11:06:23;;;;;;;1.50;1.40;;;39.80;29.20;;;;;;5122818;27;20432;-47
2022/09/13 11:09:09;;;;;;;1.93;1.37;;;39.60;30.00;;;;;;5135708;27;21111;-47
2022/09/13 11:11:59;;;;;;;3.00;1.60;;;39.80;29.70;;;;;;5133379;27;20453;-47
2022/09/13 11:14:40;;;;;;;2.47;1.77;;;40.60;30.00;;;;;;5134331;27;20449;-48
2022/09/13 11:17:40;;;;;;;1.70;1.47;;;41.00;29.20;;;;;;5133293;27;20721;-47
2022/09/13 11:20:12;;;;;;;4.30;1.87;;;41.50;29.00;;;;;;5115583;28;20434;-46
2022/09/13 11:22:49;;;;;;;2.07;1.50;;;41.40;28.90;;;;;;5131784;27;20496;-48
2022/09/13 11:25:29;;;;;;;2.20;1.60;;;41.40;29.00;;;;;;5133415;27;20438;-46
2022/09/13 11:28:30;;;;;;;1.50;1.30;;;40.50;29.10;;;;;;5116555;28;20476;-50
2022/09/13 11:31:23;;;;;;;2.43;1.60;;;39.70;29.50;;;;;;5134256;27;20439;-50
2022/09/13 11:34:23;;;;;;;2.20;1.67;;;38.00;30.20;;;;;;5126513;27;20512;-47
2022/09/13 11:37:10;;;;;;;3.20;1.73;;;37.90;30.40;;;;;;5114359;28;20459;-50
2022/09/13 11:40:01;;;;;;;3.53;1.53;;;37.70;31.10;;;;;;5133061;28;20756;-50
2022/09/13 11:42:51;;;;;;;3.00;1.70;;;37.30;31.00;;;;;;5132683;28;20489;-48
2022/09/13 11:45:22;;;;;;;1.40;1.30;;;36.50;31.70;;;;;;5132876;28;20441;-49
2022/09/13 11:48:02;;;;;;;2.47;1.70;;;36.60;31.80;;;;;;5133335;27;20473;-51
2022/09/13 11:50:38;;;;;;;2.83;1.20;;;36.70;31.60;;;;;;5109597;28;20427;-46
2022/09/13 11:53:26;;;;;;;1.67;1.40;;;36.70;31.80;;;;;;5117802;27;20497;-46
2022/09/13 11:56:05;;;;;;;5.00;1.47;;;36.70;31.60;;;;;;5137285;27;20854;-47
2022/09/13 11:59:15;;;;;;;1.93;1.30;;;37.00;32.00;;;;;;5119634;27;20422;-47
2022/09/13 12:01:45;;;;;;;1.77;1.53;;;36.50;31.90;;;;;;5119649;27;20462;-50
2022/09/13 12:04:36;;;;;;;2.70;2.50;;;36.00;32.20;;;;;;5121161;27;20422;-48
2022/09/13 12:07:11;;;;;;;2.20;1.63;;;35.60;32.90;;;;;;5119587;27;20512;-47
2022/09/13 12:09:45;;;;;;;1.70;1.60;;;35.20;33.00;;;;;;5120102;27;20556;-47
2022/09/13 12:12:12;;;;;;;1.57;1.40;;;34.40;33.70;;;;;;5119265;27;20441;-46
2022/09/13 12:14:59;;;;;;;1.53;1.43;;;33.60;34.10;;;;;;5115283;27;20484;-50
2022/09/13 12:17:38;;;;;;;1.90;1.70;;;33.40;34.50;;;;;;5112104;28;21005;-48
2022/09/13 12:20:14;;;;;;;1.63;1.23;;;33.60;35.30;;;;;;5096224;27;20860;-50
2022/09/13 12:22:41;;;;;;;2.43;1.60;;;33.90;34.80;;;;;;5095270;28;20433;-49
2022/09/13 12:25:23;;;;;;;2.60;1.50;;;33.90;34.50;;;;;;5125227;27;20441;-48
2022/09/13 12:28:18;;;;;;;2.07;1.53;;;34.20;34.00;;;;;;5118042;27;20444;-47
2022/09/13 12:31:08;;;;;;;2.33;1.60;;;34.20;33.80;;;;;;5116149;27;20433;-46
2022/09/13 12:33:38;;;;;;;3.43;1.40;;;34.70;33.70;;;;;;5131507;27;20401;-47
2022/09/13 12:36:35;;;;;;;2.30;1.40;;;35.20;33.00;;;;;;5117978;27;20502;-45
2022/09/13 12:39:09;;;;;;;2.43;1.40;;;35.80;32.00;;;;;;5118031;28;20408;-51
2022/09/13 12:42:08;;;;;;;1.90;1.57;;;36.50;31.70;;;;;;5116905;28;20736;-46
2022/09/13 12:45:05;;;;;;;3.30;1.60;;;37.20;30.80;;;;;;5116251;28;20404;-46
2022/09/13 12:47:47;;;;;;;2.70;1.60;;;37.60;30.40;;;;;;5099813;28;20416;-47
2022/09/13 12:50:45;;;;;;;2.00;1.40;;;37.60;30.40;;;;;;5116875;28;20426;-46
2022/09/13 12:53:40;;;;;;;1.87;1.50;;;37.60;30.50;;;;;;5062499;28;20706;-48
2022/09/13 12:56:12;;;;;;;3.83;1.57;;;38.00;30.70;;;;;;5095951;28;20846;-48
2022/09/13 12:59:00;;;;;;;2.03;1.80;;;38.80;30.00;;;;;;5112490;28;20417;-48
2022/09/13 13:01:27;;;;;;;2.87;1.73;;;38.50;29.80;;;;;;5112153;28;20435;-46
2022/09/13 13:04:09;;;;;;;4.80;1.80;;;38.00;30.60;;;;;;5098251;28;20502;-47
2022/09/13 13:06:40;;;;;;;2.57;1.60;;;38.10;30.70;;;;;;5114920;28;20443;-48
2022/09/13 13:09:39;;;;;;;2.80;1.83;;;38.60;30.40;;;;;;5100045;27;20487;-47
2022/09/13 13:12:05;;;;;;;1.80;1.60;;;38.90;30.30;;;;;;5118925;27;20428;-47
2022/09/13 13:14:37;;;;;;;2.80;1.47;;;39.30;30.90;;;;;;5116031;27;20452;-48
2022/09/13 13:17:41;;;;;;;1.80;1.70;;;40.00;30.80;;;;;;5135536;27;20428;-47
2022/09/13 13:20:38;;;;;;;2.33;2.13;;;40.20;29.70;;;;;;5118503;27;20409;-48